Time;durP1;ratioP1;P1;durP2;ratioP2;P2;SDS_P1;SDS_P2;PMS_P1;PMS_P2;Temp;Humidity;BMP_temperature;BMP_pressure;BME280_temperature;BME280_humidity;BME280_pressure;Samples;Min_cycle;Max_cycle;Signal;HPM_P1;HPM_P2
2022/07/01 00:02:15;;;;;;;4.18;1.50;;;15.30;99.90;;;;;;5056089;28;20497;-62
2022/07/01 00:04:40;;;;;;;5.18;1.45;;;15.40;99.90;;;;;;5072887;28;20044;-62
2022/07/01 00:07:06;;;;;;;7.60;1.70;;;15.40;99.90;;;;;;5072916;28;20361;-61
2022/07/01 00:09:31;;;;;;;6.00;1.42;;;15.40;99.90;;;;;;5072957;28;20040;-62
2022/07/01 00:11:57;;;;;;;4.28;1.52;;;15.70;99.90;;;;;;5073468;28;20050;-61
2022/07/01 00:14:23;;;;;;;6.32;1.20;;;15.40;99.90;;;;;;5073389;28;20041;-61
2022/07/01 00:16:50;;;;;;;4.25;0.95;;;15.60;99.90;;;;;;5072384;28;20544;-61
2022/07/01 00:19:16;;;;;;;4.78;1.73;;;15.40;99.90;;;;;;5072422;28;20076;-61
2022/07/01 00:21:42;;;;;;;3.58;0.98;;;15.30;99.90;;;;;;5071893;28;20056;-61
2022/07/01 00:24:07;;;;;;;3.70;1.20;;;15.60;99.90;;;;;;5073252;28;20078;-61
2022/07/01 00:26:33;;;;;;;2.03;1.08;;;15.30;99.90;;;;;;5072203;28;20044;-61
2022/07/01 00:28:59;;;;;;;7.15;1.10;;;14.90;99.90;;;;;;5071678;28;20386;-61
2022/07/01 00:31:25;;;;;;;4.70;1.17;;;15.50;99.90;;;;;;5072243;28;20076;-61
2022/07/01 00:33:50;;;;;;;4.25;1.20;;;15.40;99.90;;;;;;5071251;28;20082;-61
2022/07/01 00:36:16;;;;;;;3.08;1.17;;;15.30;99.90;;;;;;5055382;28;20040;-61
2022/07/01 00:38:42;;;;;;;5.78;1.63;;;15.80;99.90;;;;;;5072201;28;20424;-61
2022/07/01 00:41:07;;;;;;;5.20;1.83;;;15.60;99.90;;;;;;5070919;28;20044;-61
2022/07/01 00:43:38;;;;;;;5.80;1.88;;;15.30;99.90;;;;;;5055428;28;20049;-61
2022/07/01 00:46:04;;;;;;;6.03;1.52;;;15.10;99.90;;;;;;5071533;28;20048;-61
2022/07/01 00:48:31;;;;;;;5.38;1.60;;;15.30;99.90;;;;;;5071216;28;20116;-61
2022/07/01 00:50:58;;;;;;;3.42;1.17;;;15.30;99.90;;;;;;5071399;28;20490;-61
2022/07/01 00:53:24;;;;;;;4.97;1.58;;;15.30;99.90;;;;;;5073240;28;20044;-61
2022/07/01 00:55:50;;;;;;;6.15;1.60;;;14.90;99.90;;;;;;5070811;28;20079;-61
2022/07/01 00:58:16;;;;;;;5.65;1.55;;;15.30;99.90;;;;;;5071931;28;20087;-61
2022/07/01 01:00:42;;;;;;;3.53;1.33;;;15.30;99.90;;;;;;5071526;28;20439;-61
2022/07/01 01:03:10;;;;;;;6.00;1.92;;;15.40;99.90;;;;;;5070634;28;20037;-61
2022/07/01 01:05:36;;;;;;;4.82;2.03;;;15.30;99.90;;;;;;5071463;28;20044;-61
2022/07/01 01:08:02;;;;;;;4.78;2.00;;;15.50;99.90;;;;;;5072179;28;20074;-61
2022/07/01 01:10:29;;;;;;;3.83;1.40;;;15.40;99.90;;;;;;5072110;28;20037;-61
2022/07/01 01:12:56;;;;;;;4.88;1.42;;;15.30;99.90;;;;;;5072455;28;20044;-61
2022/07/01 01:15:22;;;;;;;3.40;1.65;;;15.30;99.90;;;;;;5072796;28;20051;-61
2022/07/01 01:17:48;;;;;;;5.10;1.50;;;15.60;99.90;;;;;;5053952;28;20485;-62
2022/07/01 01:20:18;;;;;;;3.97;1.40;;;15.30;99.90;;;;;;5054484;28;20063;-61
2022/07/01 01:22:46;;;;;;;3.85;1.27;;;15.20;99.90;;;;;;5072390;28;20132;-62
2022/07/01 01:25:12;;;;;;;4.60;1.35;;;15.30;99.90;;;;;;5070160;28;20048;-61
2022/07/01 01:27:37;;;;;;;4.30;1.73;;;15.30;99.90;;;;;;5071601;28;20037;-62
2022/07/01 01:30:05;;;;;;;5.45;1.83;;;15.70;99.90;;;;;;5069939;28;20516;-61
2022/07/01 01:32:31;;;;;;;5.07;1.75;;;15.30;99.90;;;;;;5071269;28;20481;-61
2022/07/01 01:34:56;;;;;;;4.75;1.92;;;15.50;99.90;;;;;;5054110;28;20055;-61
2022/07/01 01:37:22;;;;;;;6.50;2.47;;;15.40;99.90;;;;;;5071688;28;20086;-61
2022/07/01 01:39:48;;;;;;;6.65;2.10;;;15.30;99.90;;;;;;5070871;28;20048;-61
2022/07/01 01:42:13;;;;;;;5.57;1.92;;;15.30;99.90;;;;;;5071043;28;20048;-62
2022/07/01 01:44:39;;;;;;;5.72;1.80;;;15.20;99.90;;;;;;5071588;28;20488;-62
2022/07/01 01:47:05;;;;;;;5.25;1.90;;;14.80;99.90;;;;;;5071765;28;20033;-61
2022/07/01 01:49:30;;;;;;;5.55;2.20;;;15.30;99.90;;;;;;5072356;28;20037;-62
2022/07/01 01:52:00;;;;;;;5.45;2.00;;;15.20;99.90;;;;;;5069610;28;20059;-62
2022/07/01 01:54:26;;;;;;;4.53;1.80;;;15.20;99.90;;;;;;5071297;28;20043;-61
2022/07/01 01:56:53;;;;;;;6.10;2.20;;;14.90;99.90;;;;;;5072160;28;20063;-61
2022/07/01 01:59:19;;;;;;;5.35;2.15;;;15.30;99.90;;;;;;5070249;28;20036;-61
2022/07/01 02:01:44;;;;;;;5.90;2.10;;;15.20;99.90;;;;;;5070951;28;20052;-61
2022/07/01 02:04:10;;;;;;;4.05;1.75;;;15.20;99.90;;;;;;5070896;28;20048;-61
2022/07/01 02:06:36;;;;;;;4.35;1.92;;;15.20;99.90;;;;;;5071409;28;20040;-62
2022/07/01 02:09:02;;;;;;;5.20;2.20;;;15.40;99.90;;;;;;5070257;28;20040;-61
2022/07/01 02:11:28;;;;;;;5.70;2.50;;;15.30;99.90;;;;;;5072221;28;20039;-64
2022/07/01 02:13:53;;;;;;;5.43;2.42;;;15.40;99.90;;;;;;5070741;28;20044;-64
2022/07/01 02:16:19;;;;;;;7.07;2.83;;;15.30;99.90;;;;;;5072027;28;20097;-64
2022/07/01 02:18:45;;;;;;;6.20;3.15;;;15.70;99.90;;;;;;5072765;28;20036;-62
2022/07/01 02:21:10;;;;;;;5.90;3.08;;;15.60;99.90;;;;;;5073593;28;20131;-62
2022/07/01 02:23:36;;;;;;;8.63;3.80;;;15.30;99.90;;;;;;5074758;28;20095;-61
2022/07/01 02:26:02;;;;;;;7.13;3.72;;;14.90;99.90;;;;;;5075386;28;20036;-61
2022/07/01 02:28:28;;;;;;;7.55;3.50;;;15.20;99.90;;;;;;5074115;28;20041;-61
2022/07/01 02:30:53;;;;;;;7.88;4.03;;;15.30;99.90;;;;;;5075536;28;20043;-61
2022/07/01 02:33:19;;;;;;;5.95;3.70;;;15.10;99.90;;;;;;5075165;28;20033;-61
2022/07/01 02:35:45;;;;;;;7.82;4.85;;;15.20;99.90;;;;;;5057623;28;20032;-61
2022/07/01 02:38:10;;;;;;;5.72;3.75;;;14.90;99.90;;;;;;5057729;28;20123;-61
2022/07/01 02:40:40;;;;;;;8.27;4.68;;;;;;;;;;5075349;28;20040;-61
2022/07/01 02:43:08;;;;;;;7.47;3.92;;;15.10;99.90;;;;;;5075098;28;20044;-61
2022/07/01 02:45:34;;;;;;;5.85;3.20;;;15.00;99.90;;;;;;5074327;28;20045;-61
2022/07/01 02:48:01;;;;;;;5.82;3.35;;;;;;;;;;5074226;28;20033;-61
2022/07/01 02:50:27;;;;;;;7.85;3.65;;;15.20;99.90;;;;;;5075519;28;20036;-61
2022/07/01 02:52:53;;;;;;;9.45;4.13;;;14.90;99.90;;;;;;5074091;28;20064;-61
2022/07/01 02:55:19;;;;;;;6.88;3.42;;;15.60;99.90;;;;;;5073691;28;20036;-61
2022/07/01 02:57:46;;;;;;;8.50;3.55;;;15.30;99.90;;;;;;5074993;28;20478;-61
2022/07/01 03:00:14;;;;;;;7.28;3.25;;;15.00;99.90;;;;;;5074094;28;20437;-61
2022/07/01 03:02:41;;;;;;;8.70;3.70;;;15.10;99.90;;;;;;5073409;28;20473;-61
2022/07/01 03:05:07;;;;;;;6.93;3.58;;;14.40;99.90;;;;;;5073421;28;20040;-61
2022/07/01 03:07:35;;;;;;;6.80;3.90;;;14.90;99.90;;;;;;5074074;28;20041;-61
2022/07/01 03:10:02;;;;;;;8.27;3.95;;;14.80;99.90;;;;;;5073657;28;20075;-62
2022/07/01 03:12:28;;;;;;;6.57;4.22;;;14.90;99.90;;;;;;5073819;28;20047;-61
2022/07/01 03:15:02;;;;;;;7.20;3.95;;;15.00;99.90;;;;;;5056788;28;20048;-61
2022/07/01 03:17:29;;;;;;;6.27;3.90;;;15.10;99.90;;;;;;5074193;28;20040;-62
2022/07/01 03:19:56;;;;;;;6.00;3.88;;;15.30;99.90;;;;;;5074251;28;20497;-61
2022/07/01 03:22:24;;;;;;;7.32;4.35;;;14.90;99.90;;;;;;5073705;28;20083;-61
2022/07/01 03:24:50;;;;;;;10.05;4.53;;;15.40;99.90;;;;;;5074440;28;20040;-61
2022/07/01 03:27:18;;;;;;;10.93;4.50;;;14.90;99.90;;;;;;5074604;28;20071;-61
2022/07/01 03:29:44;;;;;;;7.43;4.43;;;14.40;99.90;;;;;;5073551;28;20044;-61
2022/07/01 03:32:10;;;;;;;7.50;4.53;;;14.60;99.90;;;;;;5073219;28;20097;-61
2022/07/01 03:34:40;;;;;;;7.97;5.13;;;14.90;99.90;;;;;;5074944;28;20040;-61
2022/07/01 03:37:08;;;;;;;12.55;5.75;;;14.50;99.90;;;;;;5072515;28;20044;-61
2022/07/01 03:39:35;;;;;;;8.18;4.97;;;14.90;99.90;;;;;;5073374;28;20167;-60
2022/07/01 03:42:02;;;;;;;7.20;5.00;;;15.10;99.90;;;;;;5074007;28;20174;-61
2022/07/01 03:44:28;;;;;;;8.75;5.28;;;14.80;99.90;;;;;;5072472;28;20118;-61
2022/07/01 03:46:54;;;;;;;10.10;4.97;;;14.40;99.90;;;;;;5072746;28;20091;-60
2022/07/01 03:49:21;;;;;;;9.65;5.28;;;14.90;99.90;;;;;;5073256;28;20074;-61
2022/07/01 03:51:47;;;;;;;9.55;5.28;;;14.60;99.90;;;;;;5073444;28;20076;-61
2022/07/01 03:54:32;;;;;;;9.05;4.63;;;14.90;99.90;;;;;;5073092;28;20134;-61
2022/07/01 03:57:07;;;;;;;7.38;5.10;;;14.90;99.90;;;;;;5073821;28;20115;-61
2022/07/01 03:59:39;;;;;;;7.00;4.38;;;14.90;99.90;;;;;;5073839;28;20089;-61
2022/07/01 04:02:05;;;;;;;8.70;5.18;;;14.90;99.90;;;;;;5072756;28;20063;-61
2022/07/01 04:04:31;;;;;;;9.23;5.15;;;14.90;99.90;;;;;;5056207;28;20171;-61
2022/07/01 04:06:58;;;;;;;7.15;4.40;;;14.90;99.90;;;;;;5072729;28;20507;-61
2022/07/01 04:09:24;;;;;;;12.13;4.95;;;14.90;99.90;;;;;;5073889;28;20036;-61
2022/07/01 04:11:51;;;;;;;11.80;4.68;;;14.90;99.90;;;;;;5073242;28;20170;-61
2022/07/01 04:14:17;;;;;;;10.25;5.35;;;15.00;99.90;;;;;;5073926;28;20036;-61
2022/07/01 04:16:44;;;;;;;10.38;4.78;;;15.00;99.90;;;;;;5055794;28;20508;-61
2022/07/01 04:19:10;;;;;;;11.25;4.60;;;15.00;99.90;;;;;;5071455;28;20040;-61
2022/07/01 04:24:24;;;;;;;9.32;5.20;;;15.00;99.90;;;;;;5072460;28;20052;-61
2022/07/01 04:26:51;;;;;;;9.23;4.82;;;15.00;99.90;;;;;;5072958;28;20162;-61
2022/07/01 04:29:17;;;;;;;9.70;5.32;;;15.00;99.90;;;;;;5072428;28;20040;-61
2022/07/01 04:31:43;;;;;;;18.13;4.57;;;15.00;99.90;;;;;;5072211;28;20098;-61
2022/07/01 04:34:09;;;;;;;6.63;3.95;;;15.00;99.90;;;;;;5072657;28;20040;-61
2022/07/01 04:36:35;;;;;;;9.93;4.05;;;15.00;99.90;;;;;;5073392;28;20481;-62
2022/07/01 04:39:02;;;;;;;9.27;4.70;;;15.00;99.90;;;;;;5072811;28;20040;-61
2022/07/01 04:44:12;;;;;;;8.00;4.15;;;14.90;99.90;;;;;;5071939;28;20621;-61
2022/07/01 04:46:38;;;;;;;6.15;3.13;;;15.00;99.90;;;;;;5055722;28;20115;-61
2022/07/01 04:49:04;;;;;;;5.70;3.28;;;15.00;99.90;;;;;;5070658;28;20097;-61
2022/07/01 04:51:30;;;;;;;5.97;3.42;;;15.00;99.90;;;;;;5072311;28;20045;-61
2022/07/01 04:53:56;;;;;;;8.05;3.20;;;14.90;99.90;;;;;;5070850;28;20408;-61
2022/07/01 04:56:22;;;;;;;8.50;3.53;;;14.90;99.90;;;;;;5073306;28;20047;-61
2022/07/01 04:58:48;;;;;;;7.40;2.92;;;14.90;99.90;;;;;;5072899;28;20040;-61
2022/07/01 05:01:14;;;;;;;5.07;2.72;;;15.00;99.90;;;;;;5054136;28;20135;-61
2022/07/01 05:03:39;;;;;;;7.50;3.55;;;14.90;99.90;;;;;;5072817;28;20124;-61
2022/07/01 05:06:05;;;;;;;8.02;2.97;;;15.20;99.90;;;;;;5072272;28;20036;-61
2022/07/01 05:08:31;;;;;;;8.50;2.72;;;14.90;99.90;;;;;;5071063;28;20043;-61
2022/07/01 05:10:57;;;;;;;7.40;2.70;;;15.40;99.90;;;;;;5072499;28;20413;-61
2022/07/01 05:13:23;;;;;;;7.90;2.95;;;15.00;99.90;;;;;;5072834;28;20044;-61
2022/07/01 05:15:49;;;;;;;7.70;2.60;;;15.00;99.90;;;;;;5070591;28;20083;-61
2022/07/01 05:23:42;;;;;;;6.90;2.40;;;15.10;99.90;;;;;;5068801;28;20048;-61
2022/07/01 05:26:08;;;;;;;9.20;2.13;;;15.10;99.90;;;;;;5055152;28;20040;-61
2022/07/01 05:28:34;;;;;;;5.82;2.25;;;15.10;99.90;;;;;;5068712;28;20555;-61
2022/07/01 05:30:59;;;;;;;7.20;2.20;;;15.10;99.90;;;;;;5058173;28;20081;-61
2022/07/01 05:33:26;;;;;;;4.85;2.13;;;15.20;99.90;;;;;;5048833;28;20448;-61
2022/07/01 05:35:53;;;;;;;6.25;2.30;;;15.20;99.90;;;;;;5047451;28;20049;-62
2022/07/01 05:38:19;;;;;;;7.65;2.65;;;15.50;99.90;;;;;;5050960;28;20036;-61
2022/07/01 05:40:44;;;;;;;5.68;2.40;;;15.50;99.90;;;;;;5050441;28;20114;-61
2022/07/01 05:43:10;;;;;;;8.63;3.33;;;15.40;99.90;;;;;;5047432;28;20440;-61
2022/07/01 05:45:36;;;;;;;9.77;3.05;;;15.70;99.90;;;;;;5051378;28;20041;-61
2022/07/01 05:48:02;;;;;;;8.52;3.60;;;;;;;;;;5060640;28;20094;-62
2022/07/01 05:50:28;;;;;;;8.98;3.72;;;;;;;;;;5049246;28;20136;-61
2022/07/01 05:52:54;;;;;;;10.35;5.13;;;15.60;99.90;;;;;;5056024;28;20041;-61
2022/07/01 05:55:19;;;;;;;12.77;5.68;;;15.40;99.90;;;;;;5068913;28;20067;-61
2022/07/01 05:57:45;;;;;;;10.32;5.15;;;15.60;99.90;;;;;;5069344;28;20787;-61
2022/07/01 06:00:11;;;;;;;10.82;5.50;;;15.50;99.90;;;;;;5067594;28;20044;-61
2022/07/01 06:02:38;;;;;;;12.27;5.57;;;15.60;99.90;;;;;;5070068;28;20496;-61
2022/07/01 06:05:04;;;;;;;12.50;6.30;;;15.40;99.90;;;;;;5064957;28;20124;-62
2022/07/01 06:07:30;;;;;;;18.67;6.25;;;16.00;99.90;;;;;;5070125;28;20058;-61
2022/07/01 06:09:56;;;;;;;13.30;5.18;;;15.40;99.90;;;;;;5069176;28;20090;-61
2022/07/01 06:12:22;;;;;;;11.57;6.22;;;15.90;99.90;;;;;;5066770;28;20045;-62
2022/07/01 06:14:48;;;;;;;11.05;5.68;;;;;;;;;;5058376;28;20167;-61
2022/07/01 06:17:14;;;;;;;12.90;5.78;;;16.10;99.90;;;;;;5047211;28;20115;-61
2022/07/01 06:19:40;;;;;;;11.10;5.88;;;16.10;99.90;;;;;;5062739;28;20098;-61
2022/07/01 06:22:06;;;;;;;17.65;7.45;;;16.30;99.90;;;;;;5067522;28;20056;-61
2022/07/01 06:24:32;;;;;;;9.70;6.13;;;16.30;99.90;;;;;;5055298;28;20037;-61
2022/07/01 06:26:57;;;;;;;14.60;6.93;;;16.20;99.90;;;;;;5049252;28;20435;-62
2022/07/01 06:29:23;;;;;;;12.90;6.82;;;15.70;99.90;;;;;;5058466;28;20040;-61
2022/07/01 06:31:49;;;;;;;11.52;7.22;;;16.30;99.90;;;;;;5054330;28;20037;-61
2022/07/01 06:34:14;;;;;;;11.73;6.00;;;16.00;99.90;;;;;;5064489;28;20037;-61
2022/07/01 06:36:40;;;;;;;10.90;6.63;;;15.80;99.90;;;;;;5068594;28;20060;-61
2022/07/01 06:39:06;;;;;;;12.57;6.40;;;16.20;99.90;;;;;;5067738;28;20039;-61
2022/07/01 06:41:32;;;;;;;15.88;6.45;;;15.60;99.90;;;;;;5059947;28;20032;-62
2022/07/01 06:44:00;;;;;;;12.32;6.05;;;16.50;99.90;;;;;;5063126;28;20052;-61
2022/07/01 06:46:27;;;;;;;11.52;5.95;;;16.00;99.90;;;;;;5059704;28;20414;-61
2022/07/01 06:48:52;;;;;;;10.02;5.22;;;16.10;99.90;;;;;;5059877;28;20064;-61
2022/07/01 06:51:18;;;;;;;10.52;5.80;;;16.40;99.90;;;;;;5062979;28;20805;-61
2022/07/01 06:53:46;;;;;;;15.32;6.10;;;16.20;99.90;;;;;;5065286;28;20050;-61
2022/07/01 06:56:12;;;;;;;12.98;5.15;;;16.30;99.90;;;;;;5067365;28;20119;-61
2022/07/01 06:58:39;;;;;;;12.63;5.07;;;16.20;99.90;;;;;;5056838;28;20485;-61
2022/07/01 07:01:05;;;;;;;9.93;4.15;;;16.40;99.90;;;;;;5066338;28;20040;-61
2022/07/01 07:03:32;;;;;;;11.23;4.30;;;16.30;99.90;;;;;;5050707;28;20045;-61
2022/07/01 07:06:00;;;;;;;11.05;5.47;;;16.30;99.90;;;;;;5070566;28;20055;-61
2022/07/01 07:08:26;;;;;;;13.00;5.15;;;16.20;99.90;;;;;;5070545;28;20120;-61
2022/07/01 07:10:52;;;;;;;10.90;4.90;;;16.40;99.90;;;;;;5069599;28;20045;-61
2022/07/01 07:13:18;;;;;;;11.73;4.05;;;16.60;99.90;;;;;;5067864;28;20052;-61
2022/07/01 07:15:44;;;;;;;8.13;3.72;;;17.00;99.90;;;;;;5059507;28;20048;-61
2022/07/01 07:18:10;;;;;;;11.90;4.32;;;16.90;99.90;;;;;;5052925;28;20040;-61
2022/07/01 07:20:36;;;;;;;11.70;4.10;;;16.70;99.90;;;;;;5065172;28;20549;-61
2022/07/01 07:23:02;;;;;;;14.50;4.20;;;17.10;99.90;;;;;;5056625;28;20750;-61
2022/07/01 07:25:28;;;;;;;10.48;3.63;;;16.90;99.90;;;;;;5068770;28;20041;-61
2022/07/01 07:27:54;;;;;;;11.57;3.45;;;;;;;;;;5055631;28;20393;-61
2022/07/01 07:30:20;;;;;;;11.90;2.97;;;17.00;99.90;;;;;;5060000;28;20051;-61
2022/07/01 07:32:45;;;;;;;10.68;3.47;;;16.70;99.90;;;;;;5064815;28;20040;-61
2022/07/01 07:35:11;;;;;;;8.60;2.72;;;;;;;;;;5067873;28;20415;-61
2022/07/01 07:37:38;;;;;;;8.93;2.95;;;17.30;99.90;;;;;;5051761;28;20174;-61
2022/07/01 07:40:07;;;;;;;9.82;3.33;;;17.10;99.90;;;;;;5054474;28;20052;-62
2022/07/01 07:42:34;;;;;;;10.70;3.05;;;17.40;99.90;;;;;;5069533;28;20512;-62
2022/07/01 07:45:01;;;;;;;7.68;3.03;;;17.00;99.90;;;;;;5044014;28;20401;-61
2022/07/01 07:47:26;;;;;;;9.98;2.80;;;17.50;99.90;;;;;;5055307;28;20393;-61
2022/07/01 07:49:52;;;;;;;14.57;3.45;;;17.30;99.90;;;;;;5062115;28;20044;-61
2022/07/01 07:52:18;;;;;;;7.55;3.25;;;19.90;99.90;;;;;;5059468;28;20067;-61
2022/07/01 07:54:43;;;;;;;6.75;2.20;;;17.50;99.90;;;;;;5049736;28;20398;-61
2022/07/01 07:57:09;;;;;;;9.65;2.83;;;18.70;99.90;;;;;;5059173;28;20032;-61
2022/07/01 07:59:35;;;;;;;9.82;3.38;;;17.50;99.90;;;;;;5057343;28;20512;-61
2022/07/01 08:02:01;;;;;;;7.90;2.60;;;18.00;99.90;;;;;;5052883;28;20045;-62
2022/07/01 08:04:27;;;;;;;8.77;2.50;;;17.90;99.90;;;;;;5064701;28;20048;-61
2022/07/01 08:06:53;;;;;;;8.00;2.67;;;18.10;99.90;;;;;;5054056;28;20528;-60
2022/07/01 08:09:19;;;;;;;8.45;2.67;;;;;;;;;;5065023;28;20028;-61
2022/07/01 08:11:45;;;;;;;8.85;1.88;;;;;;;;;;5071505;28;20079;-61
2022/07/01 08:14:11;;;;;;;6.95;2.22;;;;;;;;;;5055704;28;20048;-61
2022/07/01 08:16:37;;;;;;;9.27;2.67;;;;;;;;;;5064318;28;20045;-61
2022/07/01 08:19:03;;;;;;;8.13;2.90;;;;;;;;;;5062542;28;20065;-61
2022/07/01 08:21:30;;;;;;;4.82;1.60;;;;;;;;;;5071919;28;20118;-61
2022/07/01 08:23:57;;;;;;;5.50;2.15;;;;;;;;;;5073357;28;20052;-61
2022/07/01 08:26:23;;;;;;;5.38;1.90;;;18.70;99.90;;;;;;5071981;28;20043;-61
2022/07/01 08:28:48;;;;;;;9.27;1.95;;;18.80;99.90;;;;;;5068186;28;20045;-61
2022/07/01 08:31:14;;;;;;;8.32;1.77;;;18.80;99.90;;;;;;5055716;28;20115;-61
2022/07/01 08:33:41;;;;;;;9.32;1.92;;;19.00;99.90;;;;;;5070952;28;20037;-61
2022/07/01 08:36:08;;;;;;;7.55;2.05;;;19.00;99.90;;;;;;5063989;28;20373;-61
2022/07/01 08:38:34;;;;;;;8.32;2.30;;;19.00;99.90;;;;;;5071854;28;20410;-61
2022/07/01 08:41:01;;;;;;;9.00;1.70;;;19.00;99.90;;;;;;5068432;28;20050;-61
2022/07/01 08:43:27;;;;;;;5.93;1.90;;;18.90;99.90;;;;;;5052880;28;20037;-61
2022/07/01 08:45:53;;;;;;;6.40;1.92;;;18.60;99.90;;;;;;5062404;28;20044;-61
2022/07/01 08:48:18;;;;;;;5.57;1.55;;;19.00;99.90;;;;;;5063997;28;20374;-61
2022/07/01 08:50:44;;;;;;;8.52;2.50;;;19.00;99.90;;;;;;5070504;28;20032;-61
2022/07/01 08:53:11;;;;;;;7.35;2.08;;;19.00;99.90;;;;;;5050653;28;20043;-61
2022/07/01 08:58:24;;;;;;;8.52;2.50;;;19.20;99.90;;;;;;5057519;28;20036;-61
2022/07/01 09:00:50;;;;;;;9.15;2.45;;;19.00;99.90;;;;;;5066896;28;20082;-62
2022/07/01 09:03:23;;;;;;;8.00;1.85;;;18.90;99.90;;;;;;5057809;28;20120;-61
2022/07/01 09:05:54;;;;;;;4.35;1.95;;;19.30;99.90;;;;;;5065952;28;20037;-61
2022/07/01 09:08:19;;;;;;;5.88;1.63;;;19.00;99.90;;;;;;5055258;28;20040;-61
2022/07/01 09:10:45;;;;;;;6.43;1.95;;;19.00;99.90;;;;;;5061627;28;20032;-62
2022/07/01 09:13:13;;;;;;;4.70;1.83;;;18.90;99.90;;;;;;5064110;28;20041;-61
2022/07/01 09:15:40;;;;;;;5.47;1.27;;;18.90;99.90;;;;;;5050779;28;20045;-61
2022/07/01 09:18:14;;;;;;;5.15;1.63;;;18.90;99.90;;;;;;5051051;28;20090;-61
2022/07/01 09:20:50;;;;;;;7.45;1.63;;;18.90;99.90;;;;;;5051458;28;20057;-61
2022/07/01 09:23:17;;;;;;;6.63;1.80;;;18.90;99.90;;;;;;5040210;28;20048;-62
2022/07/01 09:25:49;;;;;;;5.47;1.45;;;18.80;99.90;;;;;;5041538;28;20041;-61
2022/07/01 09:28:20;;;;;;;6.72;2.00;;;19.00;99.90;;;;;;5057231;28;20037;-61
2022/07/01 09:30:48;;;;;;;5.57;1.70;;;19.10;99.90;;;;;;5057409;28;20060;-61
2022/07/01 09:33:19;;;;;;;8.00;1.90;;;19.40;99.90;;;;;;5057305;28;20071;-61
2022/07/01 09:35:46;;;;;;;7.18;2.00;;;19.70;99.90;;;;;;5069255;28;20029;-62
2022/07/01 09:38:17;;;;;;;10.48;2.17;;;19.70;99.90;;;;;;5068291;28;20089;-61
2022/07/01 09:40:47;;;;;;;4.10;1.60;;;19.40;99.90;;;;;;5059632;28;20500;-61
2022/07/01 09:43:23;;;;;;;6.05;1.63;;;19.30;99.90;;;;;;5046781;28;20049;-61
2022/07/01 09:45:50;;;;;;;6.13;1.92;;;19.00;99.90;;;;;;5054071;28;20037;-61
2022/07/01 09:48:16;;;;;;;7.90;2.30;;;18.90;99.90;;;;;;5055517;28;20036;-61
2022/07/01 09:50:41;;;;;;;5.50;1.70;;;18.70;99.90;;;;;;5051731;28;20390;-61
2022/07/01 09:53:07;;;;;;;7.20;2.03;;;18.90;99.90;;;;;;5051262;28;20040;-61
2022/07/01 09:55:34;;;;;;;6.63;1.67;;;18.90;99.90;;;;;;5067256;28;20076;-62
2022/07/01 09:58:00;;;;;;;5.70;1.90;;;18.50;99.90;;;;;;5066647;28;20029;-60
2022/07/01 10:00:29;;;;;;;7.68;2.38;;;18.30;99.90;;;;;;5064375;28;20489;-61
2022/07/01 10:02:56;;;;;;;7.10;1.50;;;18.70;99.90;;;;;;5051198;28;20048;-61
2022/07/01 10:05:24;;;;;;;8.00;2.00;;;18.40;99.90;;;;;;5050949;28;20557;-61
2022/07/01 10:08:08;;;;;;;4.78;1.40;;;18.40;99.90;;;;;;5051633;28;20045;-61
2022/07/01 10:11:01;;;;;;;4.55;1.90;;;18.40;99.90;;;;;;5050799;28;20115;-61
2022/07/01 10:13:28;;;;;;;7.78;1.52;;;18.30;99.90;;;;;;5038436;28;20170;-61
2022/07/01 10:15:57;;;;;;;3.92;1.02;;;18.10;99.90;;;;;;5060105;28;20048;-61
2022/07/01 10:18:27;;;;;;;4.97;1.50;;;17.90;99.90;;;;;;5063029;28;20033;-61
2022/07/01 10:20:57;;;;;;;3.83;1.27;;;18.20;99.90;;;;;;5069707;28;20049;-61
2022/07/01 10:23:28;;;;;;;4.18;1.60;;;18.60;99.90;;;;;;5053550;28;20039;-61
2022/07/01 10:26:05;;;;;;;5.40;1.67;;;18.70;99.90;;;;;;5052480;28;20401;-61
2022/07/01 10:28:43;;;;;;;4.97;1.60;;;18.40;99.90;;;;;;5070877;28;20036;-61
2022/07/01 10:31:16;;;;;;;7.47;1.75;;;18.60;99.90;;;;;;5069592;28;20036;-61
2022/07/01 10:33:59;;;;;;;5.93;1.50;;;18.70;99.90;;;;;;5067061;28;20040;-61
2022/07/01 10:36:29;;;;;;;11.07;2.63;;;18.50;99.90;;;;;;5069063;28;20044;-61
2022/07/01 10:39:03;;;;;;;5.22;2.10;;;18.30;99.90;;;;;;5067679;28;20110;-61
2022/07/01 10:41:33;;;;;;;4.70;1.85;;;18.30;99.90;;;;;;5073308;28;20470;-61
2022/07/01 10:44:03;;;;;;;6.95;2.47;;;18.30;99.90;;;;;;5046275;28;20094;-62
2022/07/01 10:46:49;;;;;;;5.82;1.80;;;18.60;99.90;;;;;;5058892;28;20122;-62
2022/07/01 10:49:39;;;;;;;6.65;1.85;;;19.00;99.90;;;;;;5058699;28;20037;-61
2022/07/01 10:52:07;;;;;;;5.60;1.90;;;19.50;99.90;;;;;;5072607;28;20036;-62
2022/07/01 10:54:36;;;;;;;6.15;2.50;;;19.50;99.90;;;;;;5073213;28;20123;-62
2022/07/01 10:57:18;;;;;;;5.30;2.20;;;19.90;99.90;;;;;;5072886;28;20044;-62
2022/07/01 10:59:51;;;;;;;4.90;1.90;;;19.90;99.90;;;;;;5073088;28;20400;-62
2022/07/01 11:02:22;;;;;;;11.18;2.30;;;20.40;99.90;;;;;;5073350;28;20072;-62
2022/07/01 11:04:50;;;;;;;5.82;1.88;;;20.40;99.90;;;;;;5056601;28;20088;-62
2022/07/01 11:07:15;;;;;;;9.20;2.85;;;20.10;99.90;;;;;;5071761;28;20044;-61
2022/07/01 11:09:41;;;;;;;6.50;1.85;;;20.10;99.90;;;;;;5073497;28;20112;-62
2022/07/01 11:12:08;;;;;;;7.45;2.42;;;20.30;99.90;;;;;;5071784;28;20503;-62
2022/07/01 11:14:35;;;;;;;6.70;2.15;;;20.10;99.90;;;;;;5058923;28;20041;-62
2022/07/01 11:17:03;;;;;;;6.93;2.30;;;20.00;99.90;;;;;;5057013;28;20067;-61
2022/07/01 11:19:28;;;;;;;5.28;2.25;;;20.10;99.90;;;;;;5072877;28;20047;-62
2022/07/01 11:21:55;;;;;;;5.40;1.98;;;19.90;99.90;;;;;;5072035;28;20396;-62
2022/07/01 11:24:21;;;;;;;4.50;2.10;;;19.70;99.90;;;;;;5073423;28;20037;-61
2022/07/01 11:26:47;;;;;;;6.18;2.10;;;19.40;99.90;;;;;;5073088;28;20039;-62
2022/07/01 11:29:15;;;;;;;4.57;1.80;;;18.90;99.90;;;;;;5071369;28;20170;-62
2022/07/01 11:31:41;;;;;;;6.15;1.48;;;19.10;99.90;;;;;;5073207;28;20037;-62
2022/07/01 11:34:07;;;;;;;5.05;1.52;;;19.10;99.90;;;;;;5072620;28;20059;-62
2022/07/01 11:39:24;;;;;;;;;;;19.00;99.90;;;;;;5054322;28;20119;-62
2022/07/01 11:41:58;;;;;;;5.40;1.58;;;19.10;99.90;;;;;;5052469;28;20277;-62
2022/07/01 11:44:44;;;;;;;3.08;1.30;;;19.60;99.90;;;;;;5036368;28;20036;-62
2022/07/01 11:47:12;;;;;;;4.88;1.30;;;19.90;99.90;;;;;;5051443;28;20493;-62
2022/07/01 11:49:48;;;;;;;7.78;1.60;;;19.70;99.90;;;;;;5063458;28;20106;-62
2022/07/01 11:52:15;;;;;;;5.97;1.50;;;19.80;99.90;;;;;;5069741;28;20044;-62
2022/07/01 11:54:43;;;;;;;4.45;1.73;;;19.50;99.90;;;;;;5058354;28;20123;-62
2022/07/01 11:57:17;;;;;;;6.15;1.73;;;19.70;99.90;;;;;;5056381;28;20493;-62
2022/07/01 11:59:44;;;;;;;4.57;1.65;;;19.60;99.90;;;;;;5066385;28;20528;-62
2022/07/01 12:02:13;;;;;;;6.18;1.95;;;19.50;99.90;;;;;;5068200;28;20044;-62
2022/07/01 12:04:40;;;;;;;4.07;1.35;;;19.70;99.90;;;;;;5049753;28;20094;-62
2022/07/01 12:07:07;;;;;;;5.75;2.03;;;19.50;99.90;;;;;;5062406;28;20040;-62
2022/07/01 12:09:33;;;;;;;6.88;1.60;;;19.60;99.90;;;;;;5068233;28;20044;-62
2022/07/01 12:11:59;;;;;;;4.90;1.30;;;19.80;99.90;;;;;;5069617;28;20048;-62
2022/07/01 12:14:28;;;;;;;3.65;1.25;;;19.80;99.90;;;;;;5068939;28;20516;-62
2022/07/01 12:16:59;;;;;;;4.07;1.40;;;19.70;99.90;;;;;;5055502;28;20560;-62
2022/07/01 12:19:46;;;;;;;8.10;1.63;;;19.90;99.90;;;;;;5069126;28;20048;-62
2022/07/01 12:22:15;;;;;;;6.22;1.75;;;20.10;99.90;;;;;;5068957;28;20891;-62
2022/07/01 12:24:41;;;;;;;4.43;1.27;;;20.30;99.90;;;;;;5062695;28;20090;-62
2022/07/01 12:27:08;;;;;;;4.07;1.70;;;20.50;99.90;;;;;;5067847;28;20040;-62
2022/07/01 12:29:43;;;;;;;3.67;1.38;;;20.40;99.90;;;;;;5066228;28;20044;-62
2022/07/01 12:32:11;;;;;;;6.13;1.05;;;20.70;99.90;;;;;;5066097;28;20046;-62
2022/07/01 12:34:42;;;;;;;2.35;0.90;;;20.70;99.90;;;;;;5054062;28;20657;-62
2022/07/01 12:37:29;;;;;;;2.90;1.30;;;20.30;99.90;;;;;;5076943;28;20098;-63
2022/07/01 12:40:00;;;;;;;4.22;1.30;;;20.60;99.90;;;;;;5050791;28;20531;-63
2022/07/01 12:42:43;;;;;;;5.00;0.90;;;20.40;99.90;;;;;;5069368;28;20076;-63
2022/07/01 12:45:14;;;;;;;2.55;0.90;;;20.20;99.90;;;;;;5069490;28;20041;-62
2022/07/01 12:47:45;;;;;;;3.72;0.80;;;20.50;99.90;;;;;;5070640;28;20067;-62
2022/07/01 12:50:11;;;;;;;2.25;0.70;;;20.60;99.90;;;;;;5069809;28;20035;-63
2022/07/01 12:52:37;;;;;;;3.72;0.90;;;20.40;99.90;;;;;;5065833;28;20037;-62
2022/07/01 12:55:17;;;;;;;3.20;1.05;;;20.40;99.90;;;;;;5048640;28;20364;-62
2022/07/01 12:57:45;;;;;;;5.55;1.17;;;20.50;99.90;;;;;;5047625;28;20049;-63
2022/07/01 13:00:11;;;;;;;5.05;1.58;;;20.50;99.90;;;;;;5048236;28;20167;-62
2022/07/01 13:02:37;;;;;;;3.92;1.38;;;20.60;99.90;;;;;;5048392;28;20053;-62
2022/07/01 13:05:03;;;;;;;5.28;1.10;;;19.80;99.90;;;;;;5030624;28;20041;-62
2022/07/01 13:07:29;;;;;;;8.25;1.38;;;20.80;99.90;;;;;;5051341;28;20402;-63
2022/07/01 13:09:54;;;;;;;6.22;1.48;;;20.70;99.90;;;;;;5068019;28;20047;-62